CDT,Max TemperatureF,Mean TemperatureF,Min TemperatureF,Max Dew PointF,MeanDew PointF,Min DewpointF,Max Humidity, Mean Humidity, Min Humidity, Max Sea Level PressureIn, Mean Sea Level PressureIn, Min Sea Level PressureIn, Max VisibilityMiles, Mean VisibilityMiles, Min VisibilityMiles, Max Wind SpeedMPH, Mean Wind SpeedMPH, Max Gust SpeedMPH,PrecipitationIn, CloudCover, Events, WindDirDegrees
2013-6-1,74,70,64,67,66,61,100,91,77,29.93,29.84,29.79,10,9,2,20,9,25,0.79,6,Rain-Thunderstorm,186
2013-6-2,70,65,61,63,60,57,96,84,71,30.03,29.96,29.88,10,10,10,13,5,16,0.01,6,Rain,305
2013-6-3,68,61,55,57,54,50,96,76,56,30.12,30.06,30.01,10,10,7,8,4,,0.00,5,,21
2013-6-4,75,64,53,62,57,52,100,74,55,30.11,30.07,30.02,10,10,4,13,2,,0.00,1,,90
2013-6-5,81,72,62,68,62,59,91,71,49,30.04,29.95,29.86,10,10,7,6,1,,0.00,2,Rain,68
2013-6-6,81,74,68,65,63,60,89,72,49,29.87,29.83,29.81,10,10,7,15,6,20,0.00,4,Rain,324
2013-6-7,77,69,62,64,61,57,93,76,55,29.90,29.87,29.84,10,10,7,14,7,20,0.00,4,,347
2013-6-8,81,70,59,62,59,55,100,72,43,30.00,29.95,29.90,10,8,1,14,1,17,0.00,2,,179
2013-6-9,82,72,63,68,62,57,100,73,45,29.99,29.91,29.82,10,9,0,15,5,25,0.30,5,Fog-Rain-Thunderstorm,164
2013-6-10,78,70,62,67,65,62,100,85,61,29.94,29.86,29.80,10,9,0,14,6,16,0.03,5,Fog-Rain,234
2013-6-11,91,76,61,75,69,61,100,78,56,30.01,29.94,29.88,10,9,3,14,4,20,0.00,0,,192
2013-6-12,92,84,76,75,74,72,88,69,54,29.98,29.87,29.75,10,10,10,23,10,32,0.00,1,,217
2013-6-13,84,75,65,72,64,57,87,64,40,30.00,29.90,29.75,10,10,2,23,11,30,0.00,3,,323
2013-6-14,82,71,60,63,59,56,95,64,41,30.11,30.05,29.96,10,10,10,12,2,,0.00,0,,22
2013-6-15,87,75,63,69,64,58,92,66,47,30.12,30.03,29.95,10,10,10,21,4,26,0.00,1,Rain-Thunderstorm,188
2013-6-16,81,74,68,73,70,67,97,89,75,30.05,29.99,29.95,10,10,2,8,2,,0.17,4,Rain-Thunderstorm,180
2013-6-17,87,76,66,74,70,63,100,88,62,29.99,29.94,29.86,10,7,1,14,2,30,0.87,3,Rain-Thunderstorm,103
2013-6-18,87,76,64,70,67,62,100,77,47,29.98,29.94,29.89,10,9,2,12,3,17,0.00,1,Thunderstorm,299
2013-6-19,84,74,65,71,67,64,100,78,52,30.09,30.04,29.99,10,9,4,7,2,,0.00,1,,64
2013-6-20,89,78,69,71,67,63,96,68,44,30.15,30.12,30.08,10,9,5,7,3,,0.00,1,,126
2013-6-21,91,81,72,71,69,67,88,67,47,30.15,30.11,30.05,10,10,10,12,5,20,0.00,1,,169
2013-6-22,90,79,69,74,70,66,99,80,54,30.17,30.10,30.02,10,10,4,24,6,34,0.11,2,Rain-Thunderstorm,182
2013-6-23,79,74,68,73,70,66,100,95,73,30.12,30.07,30.02,10,7,1,15,4,26,1.27,5,Rain-Thunderstorm,132
2013-6-24,89,78,68,77,72,68,100,85,62,30.13,30.06,29.99,10,10,7,12,5,17,0.00,1,Rain,161
2013-6-25,91,83,75,75,73,71,90,73,55,30.01,29.96,29.84,10,10,7,17,8,24,0.00,1,,191
2013-6-26,87,79,72,78,73,68,95,82,66,29.93,29.83,29.71,10,9,2,17,8,25,0.26,3,Rain-Thunderstorm,201
2013-6-27,91,82,72,77,73,68,100,78,46,29.88,29.84,29.79,10,9,3,17,5,23,0.00,0,,293
2013-6-28,87,78,69,73,66,57,96,66,38,29.86,29.76,29.70,10,10,10,18,7,25,0.00,2,,284
2013-6-29,81,73,66,67,65,62,100,80,57,29.71,29.68,29.64,10,10,3,29,6,34,0.11,3,Rain-Thunderstorm,282
2013-6-30,75,70,65,68,66,63,100,90,75,29.89,29.81,29.72,10,9,2,15,6,21,0.43,7,Rain-Thunderstorm,355